Blue Ridge Observed Data For Previous 48 Hours

Caption
Day and Hour Reservoir Elevation (behind dam)* Tailwater Elevation (below dam)* Average Hourly Discharge*
1/27/2020 2 AM EST 1,670.25 1,540.73 155
1/27/2020 3 AM EST 1,670.27 1,540.73 155
1/27/2020 4 AM EST 1,670.30 1,540.74 155
1/27/2020 5 AM EST 1,670.24 1,540.71 177
1/27/2020 6 AM EST 1,670.29 1,543.54 1,750
1/27/2020 7 AM EST 1,670.26 1,543.68 1,741
1/27/2020 8 AM EST 1,670.24 1,543.69 1,738
1/27/2020 9 AM EST 1,670.22 1,543.69 1,736
1/27/2020 10 AM EST 1,670.19 1,543.68 1,738
1/27/2020 11 AM EST 1,670.17 1,543.68 1,733
1/27/2020 12 PM EST 1,670.16 1,543.68 1,739
1/27/2020 1 PM EST 1,670.13 1,543.68 1,737
1/27/2020 2 PM EST 1,670.15 1,540.94 219
1/27/2020 3 PM EST 1,670.14 1,540.73 155
1/27/2020 4 PM EST 1,670.19 1,540.73 155
1/27/2020 5 PM EST 1,670.20 1,540.71 171
1/27/2020 6 PM EST 1,670.18 1,543.52 1,755
1/27/2020 7 PM EST 1,670.17 1,543.68 1,742
1/27/2020 8 PM EST 1,670.14 1,543.69 1,744
1/27/2020 9 PM EST 1,670.12 1,543.69 1,742
1/27/2020 10 PM EST 1,670.10 1,543.68 1,742
1/27/2020 11 PM EST 1,670.06 1,543.68 1,744
1/28/2020 12 AM EST 1,670.04 1,543.68 1,743
1/28/2020 1 AM EST 1,670.01 1,540.94 220
1/28/2020 2 AM EST 1,670.05 1,540.73 155
1/28/2020 3 AM EST 1,670.11 1,540.73 155
1/28/2020 4 AM EST 1,670.14 1,540.73 155
1/28/2020 5 AM EST 1,670.14 1,540.71 176
1/28/2020 6 AM EST 1,670.12 1,543.53 1,739
1/28/2020 7 AM EST 1,670.07 1,543.68 1,729
1/28/2020 8 AM EST 1,670.07 1,543.66 1,720
1/28/2020 9 AM EST 1,670.03 1,543.66 1,724
1/28/2020 10 AM EST 1,670.02 1,543.68 1,725
1/28/2020 11 AM EST 1,669.99 1,543.67 1,726
1/28/2020 12 PM EST 1,669.97 1,543.67 1,721
1/28/2020 1 PM EST 1,669.87 1,543.67 1,725
1/28/2020 2 PM EST 1,669.91 1,540.94 216
1/28/2020 3 PM EST 1,669.93 1,540.73 155
1/28/2020 4 PM EST 1,669.93 1,540.73 155
1/28/2020 5 PM EST 1,669.95 1,540.70 169
1/28/2020 6 PM EST 1,669.98 1,543.52 1,752
1/28/2020 7 PM EST 1,669.96 1,543.67 1,736
1/28/2020 8 PM EST 1,669.93 1,543.67 1,734
1/28/2020 9 PM EST 1,669.90 1,543.67 1,737
1/28/2020 10 PM EST 1,669.87 1,543.68 1,735
1/28/2020 11 PM EST 1,669.89 1,540.94 218
1/29/2020 12 AM EST 1,669.92 1,540.73 155
1/29/2020 1 AM EST 1,669.90 1,540.73 155
1/29/2020 2 AM EST 1,669.97 1,540.73 155
1/29/2020 3 AM EST 1,669.99 1,540.73 155
1/29/2020 4 AM EST 1,670.00 1,540.73 155
1/29/2020 5 AM EST 1,669.96 1,540.71 169
1/29/2020 6 AM EST 1,669.96 1,543.51 1,726
1/29/2020 7 AM EST 1,669.96 1,543.69 1,742
1/29/2020 8 AM EST 1,669.93 1,543.67 1,737
1/29/2020 9 AM EST 1,669.88 1,543.67 1,738
1/29/2020 10 AM EST 1,669.81 1,543.68 1,733
1/29/2020 11 AM EST 1,669.85 1,543.68 1,736
1/29/2020 12 PM EST 1,669.81 1,543.67 1,739
1/29/2020 1 PM EST 1,669.79 1,543.69 1,735
1/29/2020 2 PM EST 1,669.70 1,540.94 219
1/29/2020 3 PM EST 1,669.82 1,540.73 155

Elevations are in feet above sea level. Discharges are in cubic feet per second and are reported at the end of the hour.